sensor_id;sensor_type;location;lat;lon;timestamp;P1;durP1;ratioP1;P2;durP2;ratioP2
58898;SDS011;44680;48.342;7.856;2023-04-24T00:02:22;2.70;;;2.47;;
58898;SDS011;44680;48.342;7.856;2023-04-24T00:04:48;2.70;;;2.47;;
58898;SDS011;44680;48.342;7.856;2023-04-24T00:07:14;2.35;;;2.15;;
58898;SDS011;44680;48.342;7.856;2023-04-24T00:09:41;3.65;;;2.25;;
58898;SDS011;44680;48.342;7.856;2023-04-24T00:12:07;2.30;;;2.20;;
58898;SDS011;44680;48.342;7.856;2023-04-24T00:14:32;4.70;;;2.33;;
58898;SDS011;44680;48.342;7.856;2023-04-24T00:16:57;2.65;;;2.45;;
58898;SDS011;44680;48.342;7.856;2023-04-24T00:19:23;3.70;;;2.13;;
58898;SDS011;44680;48.342;7.856;2023-04-24T00:21:48;3.28;;;2.17;;
58898;SDS011;44680;48.342;7.856;2023-04-24T00:24:16;2.63;;;2.30;;
58898;SDS011;44680;48.342;7.856;2023-04-24T00:26:43;4.47;;;2.85;;
58898;SDS011;44680;48.342;7.856;2023-04-24T00:29:08;2.88;;;2.03;;
58898;SDS011;44680;48.342;7.856;2023-04-24T00:31:33;3.50;;;2.35;;
58898;SDS011;44680;48.342;7.856;2023-04-24T00:34:01;2.10;;;1.90;;
58898;SDS011;44680;48.342;7.856;2023-04-24T00:36:27;2.58;;;2.38;;
58898;SDS011;44680;48.342;7.856;2023-04-24T00:38:53;5.65;;;2.20;;
58898;SDS011;44680;48.342;7.856;2023-04-24T00:41:19;2.75;;;2.53;;
58898;SDS011;44680;48.342;7.856;2023-04-24T00:43:44;2.13;;;2.00;;
58898;SDS011;44680;48.342;7.856;2023-04-24T00:46:10;6.57;;;2.60;;
58898;SDS011;44680;48.342;7.856;2023-04-24T00:48:37;5.45;;;2.33;;
58898;SDS011;44680;48.342;7.856;2023-04-24T00:51:03;3.65;;;2.70;;
58898;SDS011;44680;48.342;7.856;2023-04-24T00:53:29;4.05;;;2.70;;
58898;SDS011;44680;48.342;7.856;2023-04-24T00:55:54;4.53;;;2.50;;
58898;SDS011;44680;48.342;7.856;2023-04-24T00:58:20;3.03;;;2.25;;
58898;SDS011;44680;48.342;7.856;2023-04-24T01:00:45;2.67;;;2.47;;
58898;SDS011;44680;48.342;7.856;2023-04-24T01:03:11;3.15;;;2.33;;
58898;SDS011;44680;48.342;7.856;2023-04-24T01:05:36;3.72;;;2.40;;
58898;SDS011;44680;48.342;7.856;2023-04-24T01:08:01;2.47;;;2.28;;
58898;SDS011;44680;48.342;7.856;2023-04-24T01:10:27;2.88;;;2.35;;
58898;SDS011;44680;48.342;7.856;2023-04-24T01:12:54;4.35;;;2.25;;
58898;SDS011;44680;48.342;7.856;2023-04-24T01:15:20;3.03;;;2.03;;
58898;SDS011;44680;48.342;7.856;2023-04-24T01:17:45;2.55;;;2.35;;
58898;SDS011;44680;48.342;7.856;2023-04-24T01:20:11;3.90;;;2.45;;
58898;SDS011;44680;48.342;7.856;2023-04-24T01:22:37;4.97;;;2.25;;
58898;SDS011;44680;48.342;7.856;2023-04-24T01:25:03;1.98;;;1.83;;
58898;SDS011;44680;48.342;7.856;2023-04-24T01:27:28;2.47;;;2.08;;
58898;SDS011;44680;48.342;7.856;2023-04-24T01:29:54;4.65;;;2.33;;
58898;SDS011;44680;48.342;7.856;2023-04-24T01:32:19;3.22;;;2.40;;
58898;SDS011;44680;48.342;7.856;2023-04-24T01:34:45;2.42;;;2.08;;
58898;SDS011;44680;48.342;7.856;2023-04-24T01:37:11;4.57;;;2.38;;
58898;SDS011;44680;48.342;7.856;2023-04-24T01:39:36;4.10;;;2.40;;
58898;SDS011;44680;48.342;7.856;2023-04-24T01:42:02;2.67;;;2.45;;
58898;SDS011;44680;48.342;7.856;2023-04-24T01:44:27;3.28;;;2.53;;
58898;SDS011;44680;48.342;7.856;2023-04-24T01:46:52;3.45;;;2.10;;
58898;SDS011;44680;48.342;7.856;2023-04-24T01:49:19;2.63;;;2.38;;
58898;SDS011;44680;48.342;7.856;2023-04-24T01:51:44;2.25;;;2.05;;
58898;SDS011;44680;48.342;7.856;2023-04-24T01:54:10;2.60;;;2.40;;
58898;SDS011;44680;48.342;7.856;2023-04-24T01:56:35;4.05;;;2.25;;
58898;SDS011;44680;48.342;7.856;2023-04-24T01:59:02;3.03;;;2.50;;
58898;SDS011;44680;48.342;7.856;2023-04-24T02:01:31;2.33;;;2.13;;
58898;SDS011;44680;48.342;7.856;2023-04-24T02:03:59;3.13;;;2.53;;
58898;SDS011;44680;48.342;7.856;2023-04-24T02:06:24;2.38;;;2.17;;
58898;SDS011;44680;48.342;7.856;2023-04-24T02:08:49;3.47;;;2.15;;
58898;SDS011;44680;48.342;7.856;2023-04-24T02:11:15;2.45;;;2.25;;
58898;SDS011;44680;48.342;7.856;2023-04-24T02:13:40;3.15;;;2.10;;
58898;SDS011;44680;48.342;7.856;2023-04-24T02:16:05;2.35;;;2.22;;
58898;SDS011;44680;48.342;7.856;2023-04-24T02:18:31;2.42;;;2.22;;
58898;SDS011;44680;48.342;7.856;2023-04-24T02:20:56;1.75;;;1.75;;
58898;SDS011;44680;48.342;7.856;2023-04-24T02:23:21;4.07;;;2.90;;
58898;SDS011;44680;48.342;7.856;2023-04-24T02:25:46;3.53;;;2.30;;
58898;SDS011;44680;48.342;7.856;2023-04-24T02:28:12;3.08;;;2.40;;
58898;SDS011;44680;48.342;7.856;2023-04-24T02:30:37;5.35;;;2.20;;
58898;SDS011;44680;48.342;7.856;2023-04-24T02:33:03;4.30;;;2.53;;
58898;SDS011;44680;48.342;7.856;2023-04-24T02:35:28;5.68;;;2.60;;
58898;SDS011;44680;48.342;7.856;2023-04-24T02:37:53;2.80;;;2.42;;
58898;SDS011;44680;48.342;7.856;2023-04-24T02:40:19;2.25;;;2.15;;
58898;SDS011;44680;48.342;7.856;2023-04-24T02:42:44;2.58;;;2.38;;
58898;SDS011;44680;48.342;7.856;2023-04-24T02:45:10;3.08;;;2.33;;
58898;SDS011;44680;48.342;7.856;2023-04-24T02:47:35;2.78;;;2.55;;
58898;SDS011;44680;48.342;7.856;2023-04-24T02:50:01;2.35;;;2.20;;
58898;SDS011;44680;48.342;7.856;2023-04-24T02:52:27;5.47;;;2.53;;
58898;SDS011;44680;48.342;7.856;2023-04-24T02:54:53;2.70;;;2.50;;
58898;SDS011;44680;48.342;7.856;2023-04-24T02:57:19;2.55;;;2.40;;
58898;SDS011;44680;48.342;7.856;2023-04-24T02:59:44;3.65;;;2.90;;
58898;SDS011;44680;48.342;7.856;2023-04-24T03:02:09;4.68;;;2.50;;
58898;SDS011;44680;48.342;7.856;2023-04-24T03:04:35;2.67;;;2.47;;
58898;SDS011;44680;48.342;7.856;2023-04-24T03:07:00;2.55;;;2.35;;
58898;SDS011;44680;48.342;7.856;2023-04-24T03:09:26;4.38;;;2.38;;
58898;SDS011;44680;48.342;7.856;2023-04-24T03:11:51;3.42;;;2.97;;
58898;SDS011;44680;48.342;7.856;2023-04-24T03:14:16;8.18;;;3.13;;
58898;SDS011;44680;48.342;7.856;2023-04-24T03:16:42;4.55;;;2.40;;
58898;SDS011;44680;48.342;7.856;2023-04-24T03:19:07;3.15;;;2.40;;
58898;SDS011;44680;48.342;7.856;2023-04-24T03:21:33;5.43;;;2.53;;
58898;SDS011;44680;48.342;7.856;2023-04-24T03:23:58;3.25;;;2.80;;
58898;SDS011;44680;48.342;7.856;2023-04-24T03:26:23;4.15;;;2.70;;
58898;SDS011;44680;48.342;7.856;2023-04-24T03:28:49;6.03;;;2.83;;
58898;SDS011;44680;48.342;7.856;2023-04-24T03:31:14;3.10;;;2.50;;
58898;SDS011;44680;48.342;7.856;2023-04-24T03:33:40;2.55;;;2.22;;
58898;SDS011;44680;48.342;7.856;2023-04-24T03:36:05;3.35;;;2.20;;
58898;SDS011;44680;48.342;7.856;2023-04-24T03:38:31;2.50;;;2.30;;
58898;SDS011;44680;48.342;7.856;2023-04-24T03:40:56;3.92;;;2.70;;
58898;SDS011;44680;48.342;7.856;2023-04-24T03:43:22;3.20;;;2.40;;
58898;SDS011;44680;48.342;7.856;2023-04-24T03:45:47;8.85;;;2.90;;
58898;SDS011;44680;48.342;7.856;2023-04-24T03:48:12;4.28;;;2.78;;
58898;SDS011;44680;48.342;7.856;2023-04-24T03:50:38;4.18;;;2.55;;
58898;SDS011;44680;48.342;7.856;2023-04-24T03:53:03;3.40;;;2.60;;
58898;SDS011;44680;48.342;7.856;2023-04-24T03:55:28;3.00;;;2.58;;
58898;SDS011;44680;48.342;7.856;2023-04-24T03:57:54;4.80;;;2.80;;
58898;SDS011;44680;48.342;7.856;2023-04-24T04:00:19;3.42;;;2.70;;
58898;SDS011;44680;48.342;7.856;2023-04-24T04:02:45;4.68;;;2.45;;
58898;SDS011;44680;48.342;7.856;2023-04-24T04:05:11;3.38;;;2.85;;
58898;SDS011;44680;48.342;7.856;2023-04-24T04:07:36;4.85;;;3.30;;
58898;SDS011;44680;48.342;7.856;2023-04-24T04:10:01;3.42;;;3.13;;
58898;SDS011;44680;48.342;7.856;2023-04-24T04:12:27;4.68;;;2.95;;
58898;SDS011;44680;48.342;7.856;2023-04-24T04:14:52;4.00;;;2.97;;
58898;SDS011;44680;48.342;7.856;2023-04-24T04:17:18;4.00;;;3.70;;
58898;SDS011;44680;48.342;7.856;2023-04-24T04:19:43;3.25;;;3.00;;
58898;SDS011;44680;48.342;7.856;2023-04-24T04:22:08;2.80;;;2.60;;
58898;SDS011;44680;48.342;7.856;2023-04-24T04:24:33;3.08;;;2.75;;
58898;SDS011;44680;48.342;7.856;2023-04-24T04:27:02;3.20;;;3.00;;
58898;SDS011;44680;48.342;7.856;2023-04-24T04:29:29;4.03;;;3.53;;
58898;SDS011;44680;48.342;7.856;2023-04-24T04:31:56;3.38;;;2.78;;
58898;SDS011;44680;48.342;7.856;2023-04-24T04:34:21;3.78;;;2.80;;
58898;SDS011;44680;48.342;7.856;2023-04-24T04:36:47;3.53;;;3.20;;
58898;SDS011;44680;48.342;7.856;2023-04-24T04:39:13;3.72;;;2.95;;
58898;SDS011;44680;48.342;7.856;2023-04-24T04:41:40;4.30;;;2.92;;
58898;SDS011;44680;48.342;7.856;2023-04-24T04:44:05;5.80;;;2.90;;
58898;SDS011;44680;48.342;7.856;2023-04-24T04:46:31;2.92;;;2.72;;
58898;SDS011;44680;48.342;7.856;2023-04-24T04:49:02;3.75;;;2.95;;
58898;SDS011;44680;48.342;7.856;2023-04-24T04:51:28;3.50;;;2.67;;
58898;SDS011;44680;48.342;7.856;2023-04-24T04:53:53;4.55;;;2.90;;
58898;SDS011;44680;48.342;7.856;2023-04-24T04:56:19;3.45;;;3.15;;
58898;SDS011;44680;48.342;7.856;2023-04-24T04:58:44;5.53;;;3.25;;
58898;SDS011;44680;48.342;7.856;2023-04-24T05:01:09;3.97;;;3.30;;
58898;SDS011;44680;48.342;7.856;2023-04-24T05:03:35;5.95;;;3.60;;
58898;SDS011;44680;48.342;7.856;2023-04-24T05:06:00;5.47;;;3.53;;
58898;SDS011;44680;48.342;7.856;2023-04-24T05:08:26;6.88;;;5.03;;
58898;SDS011;44680;48.342;7.856;2023-04-24T05:10:52;9.60;;;5.97;;
58898;SDS011;44680;48.342;7.856;2023-04-24T05:13:17;4.18;;;3.67;;
58898;SDS011;44680;48.342;7.856;2023-04-24T05:15:43;6.65;;;4.60;;
58898;SDS011;44680;48.342;7.856;2023-04-24T05:18:08;7.50;;;4.18;;
58898;SDS011;44680;48.342;7.856;2023-04-24T05:20:33;6.25;;;3.95;;
58898;SDS011;44680;48.342;7.856;2023-04-24T05:22:58;4.63;;;4.13;;
58898;SDS011;44680;48.342;7.856;2023-04-24T05:25:24;22.38;;;4.82;;
58898;SDS011;44680;48.342;7.856;2023-04-24T05:27:49;10.38;;;4.32;;
58898;SDS011;44680;48.342;7.856;2023-04-24T05:30:15;6.88;;;5.20;;
58898;SDS011;44680;48.342;7.856;2023-04-24T05:32:40;16.42;;;7.82;;
58898;SDS011;44680;48.342;7.856;2023-04-24T05:35:05;30.00;;;13.85;;
58898;SDS011;44680;48.342;7.856;2023-04-24T05:37:31;7.18;;;4.28;;
58898;SDS011;44680;48.342;7.856;2023-04-24T05:39:56;18.23;;;8.95;;
58898;SDS011;44680;48.342;7.856;2023-04-24T05:42:22;7.80;;;4.55;;
58898;SDS011;44680;48.342;7.856;2023-04-24T05:44:47;5.82;;;4.07;;
58898;SDS011;44680;48.342;7.856;2023-04-24T05:47:12;6.53;;;4.90;;
58898;SDS011;44680;48.342;7.856;2023-04-24T05:49:38;9.55;;;3.95;;
58898;SDS011;44680;48.342;7.856;2023-04-24T05:52:03;6.18;;;3.83;;
58898;SDS011;44680;48.342;7.856;2023-04-24T05:54:30;6.82;;;4.00;;
58898;SDS011;44680;48.342;7.856;2023-04-24T05:56:55;9.18;;;4.05;;
58898;SDS011;44680;48.342;7.856;2023-04-24T05:59:21;4.00;;;3.53;;
58898;SDS011;44680;48.342;7.856;2023-04-24T06:01:46;4.63;;;4.22;;
58898;SDS011;44680;48.342;7.856;2023-04-24T06:04:14;7.75;;;4.60;;
58898;SDS011;44680;48.342;7.856;2023-04-24T06:06:40;5.32;;;4.22;;
58898;SDS011;44680;48.342;7.856;2023-04-24T06:09:05;6.70;;;4.68;;
58898;SDS011;44680;48.342;7.856;2023-04-24T06:11:31;5.38;;;4.03;;
58898;SDS011;44680;48.342;7.856;2023-04-24T06:13:56;6.00;;;4.55;;
58898;SDS011;44680;48.342;7.856;2023-04-24T06:16:22;7.90;;;3.85;;
58898;SDS011;44680;48.342;7.856;2023-04-24T06:18:47;7.40;;;4.00;;
58898;SDS011;44680;48.342;7.856;2023-04-24T06:21:12;4.70;;;3.90;;
58898;SDS011;44680;48.342;7.856;2023-04-24T06:23:38;6.05;;;3.90;;
58898;SDS011;44680;48.342;7.856;2023-04-24T06:26:03;5.68;;;4.30;;
58898;SDS011;44680;48.342;7.856;2023-04-24T06:28:29;5.88;;;3.97;;
58898;SDS011;44680;48.342;7.856;2023-04-24T06:30:54;6.93;;;4.00;;
58898;SDS011;44680;48.342;7.856;2023-04-24T06:33:19;4.85;;;3.92;;
58898;SDS011;44680;48.342;7.856;2023-04-24T06:35:45;7.25;;;4.07;;
58898;SDS011;44680;48.342;7.856;2023-04-24T06:38:10;5.40;;;3.67;;
58898;SDS011;44680;48.342;7.856;2023-04-24T06:40:35;5.07;;;3.38;;
58898;SDS011;44680;48.342;7.856;2023-04-24T06:43:01;6.47;;;4.35;;
58898;SDS011;44680;48.342;7.856;2023-04-24T06:45:27;3.97;;;3.50;;
58898;SDS011;44680;48.342;7.856;2023-04-24T06:47:53;4.07;;;3.28;;
58898;SDS011;44680;48.342;7.856;2023-04-24T06:50:19;3.50;;;3.17;;
58898;SDS011;44680;48.342;7.856;2023-04-24T06:52:44;3.45;;;3.15;;
58898;SDS011;44680;48.342;7.856;2023-04-24T06:55:09;4.82;;;3.53;;
58898;SDS011;44680;48.342;7.856;2023-04-24T06:57:36;6.68;;;3.72;;
58898;SDS011;44680;48.342;7.856;2023-04-24T07:00:02;4.00;;;3.65;;
58898;SDS011;44680;48.342;7.856;2023-04-24T07:02:28;4.63;;;3.75;;
58898;SDS011;44680;48.342;7.856;2023-04-24T07:04:53;5.43;;;3.40;;
58898;SDS011;44680;48.342;7.856;2023-04-24T07:07:19;4.30;;;2.90;;
58898;SDS011;44680;48.342;7.856;2023-04-24T07:09:44;6.07;;;3.00;;
58898;SDS011;44680;48.342;7.856;2023-04-24T07:12:10;5.22;;;3.00;;
58898;SDS011;44680;48.342;7.856;2023-04-24T07:14:36;5.68;;;3.10;;
58898;SDS011;44680;48.342;7.856;2023-04-24T07:17:04;7.03;;;3.00;;
58898;SDS011;44680;48.342;7.856;2023-04-24T07:19:30;5.47;;;3.22;;
58898;SDS011;44680;48.342;7.856;2023-04-24T07:21:55;4.03;;;3.40;;
58898;SDS011;44680;48.342;7.856;2023-04-24T07:24:23;4.90;;;3.25;;
58898;SDS011;44680;48.342;7.856;2023-04-24T07:26:48;3.80;;;2.90;;
58898;SDS011;44680;48.342;7.856;2023-04-24T07:29:13;4.90;;;2.95;;
58898;SDS011;44680;48.342;7.856;2023-04-24T07:31:39;3.80;;;3.15;;
58898;SDS011;44680;48.342;7.856;2023-04-24T07:34:06;5.80;;;3.30;;
58898;SDS011;44680;48.342;7.856;2023-04-24T07:36:31;4.60;;;3.28;;
58898;SDS011;44680;48.342;7.856;2023-04-24T07:38:57;5.45;;;3.40;;
58898;SDS011;44680;48.342;7.856;2023-04-24T07:41:22;3.92;;;3.30;;
58898;SDS011;44680;48.342;7.856;2023-04-24T07:43:49;9.00;;;3.78;;
58898;SDS011;44680;48.342;7.856;2023-04-24T07:46:14;4.55;;;3.22;;
58898;SDS011;44680;48.342;7.856;2023-04-24T07:48:40;4.97;;;3.17;;
58898;SDS011;44680;48.342;7.856;2023-04-24T07:51:05;6.63;;;3.40;;
58898;SDS011;44680;48.342;7.856;2023-04-24T07:53:30;8.30;;;3.65;;
58898;SDS011;44680;48.342;7.856;2023-04-24T07:55:56;5.63;;;3.80;;
58898;SDS011;44680;48.342;7.856;2023-04-24T07:58:21;7.03;;;3.63;;
58898;SDS011;44680;48.342;7.856;2023-04-24T08:00:46;6.60;;;3.20;;
58898;SDS011;44680;48.342;7.856;2023-04-24T08:03:12;3.83;;;3.40;;
58898;SDS011;44680;48.342;7.856;2023-04-24T08:05:37;5.32;;;3.85;;
58898;SDS011;44680;48.342;7.856;2023-04-24T08:08:03;6.72;;;3.55;;
58898;SDS011;44680;48.342;7.856;2023-04-24T08:10:28;6.15;;;3.38;;
58898;SDS011;44680;48.342;7.856;2023-04-24T08:12:53;4.18;;;3.70;;
58898;SDS011;44680;48.342;7.856;2023-04-24T08:15:20;7.10;;;3.28;;
58898;SDS011;44680;48.342;7.856;2023-04-24T08:17:45;3.25;;;3.05;;
58898;SDS011;44680;48.342;7.856;2023-04-24T08:20:11;6.35;;;3.50;;
58898;SDS011;44680;48.342;7.856;2023-04-24T08:22:40;4.25;;;3.28;;
58898;SDS011;44680;48.342;7.856;2023-04-24T08:25:06;5.80;;;3.22;;
58898;SDS011;44680;48.342;7.856;2023-04-24T08:27:32;6.72;;;3.50;;
58898;SDS011;44680;48.342;7.856;2023-04-24T08:29:57;4.70;;;3.67;;
58898;SDS011;44680;48.342;7.856;2023-04-24T08:32:23;4.90;;;3.53;;
58898;SDS011;44680;48.342;7.856;2023-04-24T08:34:49;3.30;;;3.10;;
58898;SDS011;44680;48.342;7.856;2023-04-24T08:37:14;4.97;;;2.90;;
58898;SDS011;44680;48.342;7.856;2023-04-24T08:39:40;3.20;;;2.78;;
58898;SDS011;44680;48.342;7.856;2023-04-24T08:42:05;4.78;;;2.83;;
58898;SDS011;44680;48.342;7.856;2023-04-24T08:44:32;4.75;;;2.60;;
58898;SDS011;44680;48.342;7.856;2023-04-24T08:46:58;5.00;;;2.58;;
58898;SDS011;44680;48.342;7.856;2023-04-24T08:49:24;2.60;;;2.40;;
58898;SDS011;44680;48.342;7.856;2023-04-24T08:51:50;3.33;;;3.00;;
58898;SDS011;44680;48.342;7.856;2023-04-24T08:54:18;4.72;;;2.75;;
58898;SDS011;44680;48.342;7.856;2023-04-24T08:56:43;2.78;;;2.58;;
58898;SDS011;44680;48.342;7.856;2023-04-24T08:59:09;6.63;;;2.90;;
58898;SDS011;44680;48.342;7.856;2023-04-24T09:01:35;5.03;;;3.00;;
58898;SDS011;44680;48.342;7.856;2023-04-24T09:04:02;5.95;;;2.55;;
58898;SDS011;44680;48.342;7.856;2023-04-24T09:06:28;3.67;;;2.97;;
58898;SDS011;44680;48.342;7.856;2023-04-24T09:08:55;3.08;;;2.55;;
58898;SDS011;44680;48.342;7.856;2023-04-24T09:11:22;3.90;;;2.80;;
58898;SDS011;44680;48.342;7.856;2023-04-24T09:13:49;4.68;;;2.70;;
58898;SDS011;44680;48.342;7.856;2023-04-24T09:16:14;3.08;;;2.33;;
58898;SDS011;44680;48.342;7.856;2023-04-24T09:18:40;5.65;;;3.08;;
58898;SDS011;44680;48.342;7.856;2023-04-24T09:21:08;6.03;;;2.90;;
58898;SDS011;44680;48.342;7.856;2023-04-24T09:23:34;3.47;;;2.92;;
58898;SDS011;44680;48.342;7.856;2023-04-24T09:26:00;7.00;;;3.17;;
58898;SDS011;44680;48.342;7.856;2023-04-24T09:28:29;2.80;;;2.60;;
58898;SDS011;44680;48.342;7.856;2023-04-24T09:33:32;4.30;;;2.53;;
58898;SDS011;44680;48.342;7.856;2023-04-24T09:35:57;2.88;;;2.67;;
58898;SDS011;44680;48.342;7.856;2023-04-24T09:38:30;2.78;;;2.63;;
58898;SDS011;44680;48.342;7.856;2023-04-24T09:41:00;3.95;;;2.38;;
58898;SDS011;44680;48.342;7.856;2023-04-24T09:43:28;3.35;;;2.47;;
58898;SDS011;44680;48.342;7.856;2023-04-24T09:45:55;5.32;;;2.60;;
58898;SDS011;44680;48.342;7.856;2023-04-24T09:48:29;2.78;;;2.58;;
58898;SDS011;44680;48.342;7.856;2023-04-24T09:50:56;2.70;;;2.50;;
58898;SDS011;44680;48.342;7.856;2023-04-24T09:53:24;4.28;;;2.53;;
58898;SDS011;44680;48.342;7.856;2023-04-24T09:55:51;3.58;;;2.60;;
58898;SDS011;44680;48.342;7.856;2023-04-24T09:58:18;2.97;;;2.33;;
58898;SDS011;44680;48.342;7.856;2023-04-24T10:00:43;5.57;;;2.95;;
58898;SDS011;44680;48.342;7.856;2023-04-24T10:03:10;4.80;;;2.78;;
58898;SDS011;44680;48.342;7.856;2023-04-24T10:05:36;3.33;;;2.50;;
58898;SDS011;44680;48.342;7.856;2023-04-24T10:08:04;4.28;;;2.38;;
58898;SDS011;44680;48.342;7.856;2023-04-24T10:10:40;5.50;;;2.53;;
58898;SDS011;44680;48.342;7.856;2023-04-24T10:13:07;2.28;;;2.13;;
58898;SDS011;44680;48.342;7.856;2023-04-24T10:15:34;3.92;;;2.20;;
58898;SDS011;44680;48.342;7.856;2023-04-24T10:18:00;2.58;;;2.38;;
58898;SDS011;44680;48.342;7.856;2023-04-24T10:20:26;4.68;;;2.40;;
58898;SDS011;44680;48.342;7.856;2023-04-24T10:22:54;4.50;;;2.97;;
58898;SDS011;44680;48.342;7.856;2023-04-24T10:25:21;4.18;;;2.30;;
58898;SDS011;44680;48.342;7.856;2023-04-24T10:27:51;4.22;;;3.30;;
58898;SDS011;44680;48.342;7.856;2023-04-24T10:30:17;3.08;;;2.45;;
58898;SDS011;44680;48.342;7.856;2023-04-24T10:32:43;3.28;;;2.97;;
58898;SDS011;44680;48.342;7.856;2023-04-24T10:35:09;3.22;;;2.80;;
58898;SDS011;44680;48.342;7.856;2023-04-24T10:37:37;4.03;;;3.08;;
58898;SDS011;44680;48.342;7.856;2023-04-24T10:40:05;5.05;;;3.30;;
58898;SDS011;44680;48.342;7.856;2023-04-24T10:42:32;3.72;;;2.90;;
58898;SDS011;44680;48.342;7.856;2023-04-24T10:44:58;4.78;;;3.10;;
58898;SDS011;44680;48.342;7.856;2023-04-24T10:47:23;3.20;;;2.90;;
58898;SDS011;44680;48.342;7.856;2023-04-24T10:49:50;4.47;;;3.00;;
58898;SDS011;44680;48.342;7.856;2023-04-24T10:52:16;5.00;;;3.10;;
58898;SDS011;44680;48.342;7.856;2023-04-24T10:54:44;5.15;;;2.90;;
58898;SDS011;44680;48.342;7.856;2023-04-24T10:59:47;6.38;;;2.78;;
58898;SDS011;44680;48.342;7.856;2023-04-24T11:02:16;5.95;;;2.75;;
58898;SDS011;44680;48.342;7.856;2023-04-24T11:04:43;5.93;;;2.90;;
58898;SDS011;44680;48.342;7.856;2023-04-24T11:07:09;3.28;;;2.65;;
58898;SDS011;44680;48.342;7.856;2023-04-24T11:09:35;3.72;;;3.17;;
58898;SDS011;44680;48.342;7.856;2023-04-24T11:12:08;9.27;;;3.10;;
58898;SDS011;44680;48.342;7.856;2023-04-24T11:17:36;5.20;;;3.40;;
58898;SDS011;44680;48.342;7.856;2023-04-24T11:20:10;3.25;;;2.95;;
58898;SDS011;44680;48.342;7.856;2023-04-24T11:22:36;4.30;;;3.30;;
58898;SDS011;44680;48.342;7.856;2023-04-24T11:25:05;6.18;;;3.33;;
58898;SDS011;44680;48.342;7.856;2023-04-24T11:27:34;6.38;;;3.40;;
58898;SDS011;44680;48.342;7.856;2023-04-24T11:30:04;3.45;;;2.83;;
58898;SDS011;44680;48.342;7.856;2023-04-24T11:34:56;4.95;;;3.33;;
58898;SDS011;44680;48.342;7.856;2023-04-24T11:37:40;4.47;;;3.30;;
58898;SDS011;44680;48.342;7.856;2023-04-24T11:40:07;8.25;;;3.35;;
58898;SDS011;44680;48.342;7.856;2023-04-24T11:42:34;4.93;;;3.10;;
58898;SDS011;44680;48.342;7.856;2023-04-24T11:45:13;3.88;;;3.35;;
58898;SDS011;44680;48.342;7.856;2023-04-24T11:47:48;7.45;;;4.10;;
58898;SDS011;44680;48.342;7.856;2023-04-24T11:50:14;5.55;;;3.03;;
58898;SDS011;44680;48.342;7.856;2023-04-24T11:52:41;8.10;;;3.95;;
58898;SDS011;44680;48.342;7.856;2023-04-24T11:55:08;4.93;;;3.72;;
58898;SDS011;44680;48.342;7.856;2023-04-24T11:57:57;3.35;;;3.00;;
58898;SDS011;44680;48.342;7.856;2023-04-24T12:00:28;4.38;;;2.95;;
58898;SDS011;44680;48.342;7.856;2023-04-24T12:05:49;6.05;;;2.97;;
58898;SDS011;44680;48.342;7.856;2023-04-24T12:08:27;3.45;;;3.20;;
58898;SDS011;44680;48.342;7.856;2023-04-24T12:10:53;4.80;;;2.90;;
58898;SDS011;44680;48.342;7.856;2023-04-24T12:13:18;5.75;;;3.80;;
58898;SDS011;44680;48.342;7.856;2023-04-24T12:15:44;3.03;;;2.72;;
58898;SDS011;44680;48.342;7.856;2023-04-24T12:18:11;6.47;;;3.10;;
58898;SDS011;44680;48.342;7.856;2023-04-24T12:20:37;6.53;;;3.50;;
58898;SDS011;44680;48.342;7.856;2023-04-24T12:23:03;4.85;;;2.90;;
58898;SDS011;44680;48.342;7.856;2023-04-24T12:25:28;4.57;;;3.10;;
58898;SDS011;44680;48.342;7.856;2023-04-24T12:27:57;4.10;;;3.00;;
58898;SDS011;44680;48.342;7.856;2023-04-24T12:30:41;3.20;;;2.90;;
58898;SDS011;44680;48.342;7.856;2023-04-24T12:33:10;3.35;;;3.00;;
58898;SDS011;44680;48.342;7.856;2023-04-24T12:35:36;5.32;;;2.95;;
58898;SDS011;44680;48.342;7.856;2023-04-24T12:40:37;4.03;;;2.50;;
58898;SDS011;44680;48.342;7.856;2023-04-24T12:43:12;3.97;;;2.90;;
58898;SDS011;44680;48.342;7.856;2023-04-24T12:45:41;3.35;;;3.05;;
58898;SDS011;44680;48.342;7.856;2023-04-24T12:48:06;3.17;;;2.97;;
58898;SDS011;44680;48.342;7.856;2023-04-24T12:50:32;2.63;;;2.42;;
58898;SDS011;44680;48.342;7.856;2023-04-24T12:52:57;3.88;;;2.92;;
58898;SDS011;44680;48.342;7.856;2023-04-24T12:55:22;3.15;;;2.90;;
58898;SDS011;44680;48.342;7.856;2023-04-24T12:57:48;4.43;;;3.10;;
58898;SDS011;44680;48.342;7.856;2023-04-24T13:00:13;4.65;;;3.05;;
58898;SDS011;44680;48.342;7.856;2023-04-24T13:02:39;4.18;;;3.20;;
58898;SDS011;44680;48.342;7.856;2023-04-24T13:05:05;3.67;;;3.05;;
58898;SDS011;44680;48.342;7.856;2023-04-24T13:07:31;3.35;;;3.00;;
58898;SDS011;44680;48.342;7.856;2023-04-24T13:09:56;7.22;;;3.22;;
58898;SDS011;44680;48.342;7.856;2023-04-24T13:12:25;4.28;;;3.17;;
58898;SDS011;44680;48.342;7.856;2023-04-24T13:14:51;4.70;;;3.00;;
58898;SDS011;44680;48.342;7.856;2023-04-24T13:17:16;3.72;;;3.42;;
58898;SDS011;44680;48.342;7.856;2023-04-24T13:19:42;4.50;;;3.40;;
58898;SDS011;44680;48.342;7.856;2023-04-24T13:22:09;8.95;;;4.63;;
58898;SDS011;44680;48.342;7.856;2023-04-24T13:24:35;6.38;;;3.60;;
58898;SDS011;44680;48.342;7.856;2023-04-24T13:27:00;7.72;;;4.43;;
58898;SDS011;44680;48.342;7.856;2023-04-24T13:29:26;3.92;;;3.15;;
58898;SDS011;44680;48.342;7.856;2023-04-24T13:31:52;5.88;;;3.40;;
58898;SDS011;44680;48.342;7.856;2023-04-24T13:34:21;5.10;;;3.17;;
58898;SDS011;44680;48.342;7.856;2023-04-24T13:36:50;4.15;;;3.10;;
58898;SDS011;44680;48.342;7.856;2023-04-24T13:39:17;6.55;;;4.35;;
58898;SDS011;44680;48.342;7.856;2023-04-24T13:41:42;5.38;;;3.10;;
58898;SDS011;44680;48.342;7.856;2023-04-24T13:44:08;3.70;;;2.90;;
58898;SDS011;44680;48.342;7.856;2023-04-24T13:46:33;3.03;;;2.70;;
58898;SDS011;44680;48.342;7.856;2023-04-24T13:48:58;4.72;;;2.78;;
58898;SDS011;44680;48.342;7.856;2023-04-24T13:51:25;5.82;;;3.00;;
58898;SDS011;44680;48.342;7.856;2023-04-24T13:53:52;3.10;;;2.90;;
58898;SDS011;44680;48.342;7.856;2023-04-24T13:56:18;5.63;;;2.80;;
58898;SDS011;44680;48.342;7.856;2023-04-24T13:58:43;6.05;;;2.97;;
58898;SDS011;44680;48.342;7.856;2023-04-24T14:01:08;3.05;;;2.80;;
58898;SDS011;44680;48.342;7.856;2023-04-24T14:03:34;3.45;;;2.80;;
58898;SDS011;44680;48.342;7.856;2023-04-24T14:05:59;4.50;;;2.80;;
58898;SDS011;44680;48.342;7.856;2023-04-24T14:08:24;5.72;;;2.85;;
58898;SDS011;44680;48.342;7.856;2023-04-24T14:10:50;3.80;;;2.70;;
58898;SDS011;44680;48.342;7.856;2023-04-24T14:13:15;4.72;;;2.90;;
58898;SDS011;44680;48.342;7.856;2023-04-24T14:15:41;4.65;;;2.75;;
58898;SDS011;44680;48.342;7.856;2023-04-24T14:18:06;4.53;;;2.78;;
58898;SDS011;44680;48.342;7.856;2023-04-24T14:20:32;3.85;;;3.00;;
58898;SDS011;44680;48.342;7.856;2023-04-24T14:22:57;4.45;;;3.03;;
58898;SDS011;44680;48.342;7.856;2023-04-24T14:25:25;3.28;;;2.97;;
58898;SDS011;44680;48.342;7.856;2023-04-24T14:27:51;2.90;;;2.58;;
58898;SDS011;44680;48.342;7.856;2023-04-24T14:30:16;3.25;;;2.60;;
58898;SDS011;44680;48.342;7.856;2023-04-24T14:32:42;6.22;;;2.70;;
58898;SDS011;44680;48.342;7.856;2023-04-24T14:35:07;2.90;;;2.70;;
58898;SDS011;44680;48.342;7.856;2023-04-24T14:37:33;2.85;;;2.65;;
58898;SDS011;44680;48.342;7.856;2023-04-24T14:39:58;3.08;;;2.80;;
58898;SDS011;44680;48.342;7.856;2023-04-24T14:42:24;3.25;;;2.95;;
58898;SDS011;44680;48.342;7.856;2023-04-24T14:44:49;6.30;;;2.80;;
58898;SDS011;44680;48.342;7.856;2023-04-24T14:47:15;2.78;;;2.58;;
58898;SDS011;44680;48.342;7.856;2023-04-24T14:49:42;5.53;;;2.83;;
58898;SDS011;44680;48.342;7.856;2023-04-24T14:52:08;2.85;;;2.63;;
58898;SDS011;44680;48.342;7.856;2023-04-24T14:54:34;3.75;;;2.88;;
58898;SDS011;44680;48.342;7.856;2023-04-24T14:56:59;4.45;;;2.60;;
58898;SDS011;44680;48.342;7.856;2023-04-24T14:59:26;3.47;;;2.65;;